Time;durP1;ratioP1;P1;durP2;ratioP2;P2;SDS_P1;SDS_P2;PMS_P1;PMS_P2;Temp;Humidity;BMP_temperature;BMP_pressure;BME280_temperature;BME280_humidity;BME280_pressure;Samples;Min_cycle;Max_cycle;Signal;HPM_P1;HPM_P2
2022/01/07 00:00:24;;;;;;;;;32.50;27.00;;;;;1.70;89.51;99941.59;5108418;28;8885;-79
2022/01/07 00:03:07;;;;;;;;;35.50;34.25;;;;;1.69;89.26;99957.84;5099120;27;8966;-78
2022/01/07 00:05:36;;;;;;;;;42.00;33.25;;;;;1.65;88.92;99963.69;5129024;27;8846;-80
2022/01/07 00:08:05;;;;;;;;;40.75;37.50;;;;;1.70;88.94;99963.06;5128926;27;9580;-77
2022/01/07 00:10:34;;;;;;;;;35.75;31.00;;;;;1.72;88.54;99971.72;5128605;27;8969;-77
2022/01/07 00:13:05;;;;;;;;;34.00;28.00;;;;;1.72;88.41;99973.38;5111835;27;8838;-76
2022/01/07 00:15:33;;;;;;;;;39.25;35.00;;;;;1.73;88.30;99976.03;5128889;27;8872;-77
2022/01/07 00:18:02;;;;;;;;;34.50;32.00;;;;;1.70;88.13;99981.06;5111539;27;8835;-77
2022/01/07 00:20:31;;;;;;;;;39.25;35.25;;;;;1.81;87.83;99985.75;5111754;27;8838;-77
2022/01/07 00:23:00;;;;;;;;;32.50;32.25;;;;;1.85;87.63;99991.13;5128735;27;8847;-76
2022/01/07 00:25:28;;;;;;;;;35.25;33.75;;;;;1.84;87.69;99993.63;5114109;27;8842;-80
2022/01/07 00:27:57;;;;;;;;;33.75;30.75;;;;;1.76;86.49;100001.00;5132878;27;8897;-78
2022/01/07 00:30:27;;;;;;;;;33.00;30.00;;;;;1.77;85.43;100007.03;5115554;27;8881;-77
2022/01/07 00:32:56;;;;;;;;;31.75;29.50;;;;;1.81;83.63;99998.63;5115346;27;8917;-78
2022/01/07 00:35:25;;;;;;;;;33.00;32.00;;;;;1.84;83.10;99997.06;5132821;27;8834;-80
2022/01/07 00:37:53;;;;;;;;;29.75;29.00;;;;;1.86;80.82;99989.41;5134002;27;8839;-77
2022/01/07 00:40:24;;;;;;;;;31.75;29.00;;;;;1.87;78.83;99994.63;5115401;27;8854;-77
2022/01/07 00:42:54;;;;;;;;;21.00;20.75;;;;;1.94;78.63;99996.59;5115463;27;8845;-78
2022/01/07 00:45:25;;;;;;;;;33.25;29.00;;;;;1.97;77.52;99995.88;5132437;27;8861;-79
2022/01/07 00:47:57;;;;;;;;;29.75;26.75;;;;;2.04;77.26;100004.69;5115347;27;9627;-77
2022/01/07 00:50:28;;;;;;;;;25.00;23.75;;;;;2.09;76.38;99992.91;5115082;27;8834;-77
2022/01/07 00:52:57;;;;;;;;;33.75;28.00;;;;;2.18;76.67;99997.56;5114928;27;8868;-77
2022/01/07 00:55:26;;;;;;;;;27.50;24.25;;;;;2.18;76.84;100003.59;5114151;27;8846;-77
2022/01/07 00:57:55;;;;;;;;;27.00;25.50;;;;;2.31;76.89;99992.97;5131993;27;8851;-79
2022/01/07 01:00:26;;;;;;;;;33.75;32.00;;;;;2.42;76.82;99995.06;5133379;27;8852;-79
2022/01/07 01:02:59;;;;;;;;;24.00;22.75;;;;;2.26;77.95;99997.03;5131875;27;8859;-78
2022/01/07 01:05:29;;;;;;;;;37.25;34.00;;;;;2.34;78.45;100002.50;5115261;27;8843;-78
2022/01/07 01:07:57;;;;;;;;;37.25;31.00;;;;;2.37;78.60;100006.91;5114895;27;8910;-78
2022/01/07 01:10:27;;;;;;;;;27.50;26.00;;;;;2.33;79.50;100011.03;5080254;27;8831;-80
2022/01/07 01:12:56;;;;;;;;;31.50;28.50;;;;;2.30;80.54;100009.22;5114941;27;8811;-76
2022/01/07 01:15:26;;;;;;;;;38.75;31.00;;;;;2.16;81.62;100007.78;5114513;27;8939;-76
2022/01/07 01:17:58;;;;;;;;;35.50;29.75;;;;;2.16;82.14;100007.78;5114732;27;8846;-79
2022/01/07 01:20:28;;;;;;;;;31.25;31.00;;;;;2.06;83.21;100003.97;5114557;27;9658;-78
2022/01/07 01:22:56;;;;;;;;;42.00;36.75;;;;;2.06;83.79;100006.53;5092905;28;8845;-77
2022/01/07 01:25:25;;;;;;;;;29.50;26.25;;;;;2.01;84.46;100014.88;5092867;28;8976;-77
2022/01/07 01:27:54;;;;;;;;;34.00;31.00;;;;;1.91;84.88;100019.66;5076090;28;9562;-77
2022/01/07 01:30:27;;;;;;;;;35.50;32.50;;;;;1.80;85.26;100008.03;5093107;28;8861;-75
2022/01/07 01:32:57;;;;;;;;;38.75;37.00;;;;;1.59;85.54;100009.66;5092858;28;8849;-80
2022/01/07 01:35:29;;;;;;;;;30.50;29.75;;;;;1.63;85.44;100016.72;5059441;28;8845;-81
2022/01/07 01:37:57;;;;;;;;;35.00;33.25;;;;;1.58;85.19;100003.66;5076295;28;9800;-77
2022/01/07 01:40:26;;;;;;;;;36.50;33.25;;;;;1.68;83.57;99997.22;5092692;28;8829;-77
2022/01/07 01:42:56;;;;;;;;;30.00;25.50;;;;;1.71;81.66;99998.22;5092636;28;8837;-77
2022/01/07 01:45:26;;;;;;;;;28.75;24.00;;;;;1.77;78.28;100001.88;5110319;28;8967;-78
2022/01/07 01:47:55;;;;;;;;;28.50;22.00;;;;;1.89;75.58;99987.84;5072630;28;8851;-78
2022/01/07 01:50:25;;;;;;;;;23.75;22.25;;;;;1.97;73.45;99993.31;5089767;28;8870;-77
2022/01/07 01:52:57;;;;;;;;;14.00;13.75;;;;;2.17;71.59;99999.25;5072751;28;8827;-77
2022/01/07 01:55:28;;;;;;;;;21.75;21.50;;;;;2.28;69.66;100003.13;5076221;28;9601;-79
2022/01/07 01:57:57;;;;;;;;;14.00;14.00;;;;;2.45;66.94;99992.63;5092424;28;8828;-79
2022/01/07 02:00:28;;;;;;;;;24.25;21.75;;;;;2.33;66.81;100001.63;5075612;28;8844;-77
2022/01/07 02:02:57;;;;;;;;;11.20;11.20;;;;;2.41;66.21;100003.63;5092200;28;8953;-76
2022/01/07 02:05:27;;;;;;;;;16.50;14.25;;;;;2.49;65.77;99992.78;5092319;28;9643;-78
2022/01/07 02:07:56;;;;;;;;;13.00;13.00;;;;;2.44;64.20;100003.72;5058360;28;8847;-77
2022/01/07 02:10:26;;;;;;;;;15.80;10.40;;;;;2.50;63.42;100004.00;5092378;28;8828;-76
2022/01/07 02:12:55;;;;;;;;;14.20;13.60;;;;;2.41;63.45;99999.34;5109345;28;9621;-77
2022/01/07 02:15:24;;;;;;;;;13.60;13.60;;;;;2.41;62.70;100001.91;5092143;28;8851;-78
2022/01/07 02:17:53;;;;;;;;;15.60;10.40;;;;;2.59;62.11;99999.22;5091959;28;8890;-77
2022/01/07 02:20:26;;;;;;;;;10.60;10.00;;;;;2.54;60.47;100000.72;5130917;27;8962;-78
2022/01/07 02:22:56;;;;;;;;;12.80;9.60;;;;;2.85;60.46;100007.91;5132124;27;8865;-78
2022/01/07 02:25:25;;;;;;;;;8.80;8.80;;;;;2.65;58.85;100004.59;5130615;27;8854;-75
2022/01/07 02:27:55;;;;;;;;;12.20;9.60;;;;;2.38;59.34;100011.22;5113487;27;8945;-80
2022/01/07 02:30:27;;;;;;;;;14.00;10.40;;;;;2.46;57.74;100018.44;5071531;28;8881;-79
2022/01/07 02:32:55;;;;;;;;;8.20;7.80;;;;;2.28;57.32;100018.56;5031461;28;8842;-81
2022/01/07 02:35:28;;;;;;;;;9.00;7.00;;;;;1.74;57.93;100020.63;5031491;28;8842;-78
2022/01/07 02:37:58;;;;;;;;;5.40;5.40;;;;;1.76;58.20;100029.28;5031273;28;8842;-81
2022/01/07 02:40:27;;;;;;;;;8.20;8.20;;;;;1.90;58.29;100023.00;5031742;28;8849;-77
2022/01/07 02:42:56;;;;;;;;;9.80;8.20;;;;;1.81;58.21;100014.03;5048009;28;8903;-79
2022/01/07 02:45:25;;;;;;;;;6.20;6.20;;;;;2.10;58.13;100023.00;5031367;28;8837;-80
2022/01/07 02:47:55;;;;;;;;;6.80;6.80;;;;;2.33;56.33;100022.22;5013852;28;8935;-78
2022/01/07 02:50:27;;;;;;;;;5.40;5.40;;;;;2.10;55.83;100015.28;5031108;28;8862;-76
2022/01/07 02:52:57;;;;;;;;;5.00;4.80;;;;;2.29;55.00;100024.63;4983365;28;9651;-79
2022/01/07 02:55:26;;;;;;;;;6.40;4.20;;;;;2.01;55.09;100030.31;5031097;28;9653;-77
2022/01/07 02:57:55;;;;;;;;;9.40;6.40;;;;;2.13;55.42;100029.09;5031018;28;8878;-78
2022/01/07 03:00:25;;;;;;;;;5.80;5.80;;;;;2.43;55.21;100026.03;5015606;28;8854;-77
2022/01/07 03:02:55;;;;;;;;;6.60;6.60;;;;;2.71;54.56;100021.97;5107879;28;9589;-77
2022/01/07 03:05:25;;;;;;;;;7.80;5.20;;;;;2.71;53.48;100029.69;5109482;27;8888;-77
2022/01/07 03:07:55;;;;;;;;;2.20;2.20;;;;;2.93;53.93;100021.97;5110712;28;8924;-77
2022/01/07 03:10:29;;;;;;;;;10.00;6.60;;;;;2.98;52.87;100022.13;5108993;28;8853;-76
2022/01/07 03:13:00;;;;;;;;;3.80;3.60;;;;;3.06;52.40;100028.47;5109159;28;8915;-77
2022/01/07 03:15:30;;;;;;;;;7.60;6.20;;;;;3.11;51.99;100029.50;5091941;28;9603;-77
2022/01/07 03:18:00;;;;;;;;;5.00;5.00;;;;;3.28;52.30;100024.97;5041696;28;8867;-78
2022/01/07 03:20:30;;;;;;;;;8.80;8.80;;;;;3.21;51.73;100022.97;5092152;28;8941;-77
2022/01/07 03:22:58;;;;;;;;;8.00;7.00;;;;;3.32;52.45;100031.97;5090660;28;8962;-77
2022/01/07 03:25:27;;;;;;;;;8.00;8.00;;;;;2.42;54.26;100038.81;5090872;28;8870;-78
2022/01/07 03:27:56;;;;;;;;;7.60;6.40;;;;;2.56;54.01;100037.69;5090429;28;9618;-77
2022/01/07 03:30:24;;;;;;;;;8.80;7.20;;;;;2.08;55.57;100032.31;5040875;28;8846;-76
2022/01/07 03:32:53;;;;;;;;;9.20;8.60;;;;;1.53;57.36;100030.84;5107592;28;8854;-77
2022/01/07 03:35:22;;;;;;;;;10.60;9.20;;;;;1.32;58.30;100048.78;5046455;28;8886;-79
2022/01/07 03:37:52;;;;;;;;;7.00;7.00;;;;;1.09;59.40;100051.19;5046794;28;8962;-76
2022/01/07 03:40:22;;;;;;;;;10.60;6.60;;;;;1.22;59.04;100044.91;5030162;28;8850;-80
2022/01/07 03:42:51;;;;;;;;;9.40;8.80;;;;;1.35;59.21;100044.66;5013908;28;8850;-81
2022/01/07 03:45:21;;;;;;;;;8.20;8.20;;;;;1.42;58.68;100047.50;5030003;28;8945;-78
2022/01/07 03:47:52;;;;;;;;;6.40;6.20;;;;;1.31;58.31;100049.59;5030484;28;8846;-79
2022/01/07 03:50:25;;;;;;;;;6.20;6.20;;;;;1.23;58.97;100038.09;5030227;28;8892;-77
2022/01/07 03:52:57;;;;;;;;;8.20;4.80;;;;;1.60;58.59;100040.59;4990588;28;8889;-77
2022/01/07 03:55:29;;;;;;;;;6.00;6.00;;;;;1.87;57.43;100040.91;5026682;28;8995;-80
2022/01/07 03:57:58;;;;;;;;;5.60;4.00;;;;;2.05;56.16;100047.63;4962090;28;8872;-76
2022/01/07 04:00:32;;;;;;;;;6.80;6.80;;;;;1.89;56.02;100043.53;5010321;28;8853;-78
2022/01/07 04:03:02;;;;;;;;;11.20;7.40;;;;;2.18;56.10;100031.00;5015058;28;9652;-80
2022/01/07 04:05:31;;;;;;;;;8.60;8.60;;;;;2.33;55.27;100035.06;5032516;28;8862;-77
2022/01/07 04:08:01;;;;;;;;;4.20;4.20;;;;;2.52;54.62;100034.13;5070193;28;8961;-79
2022/01/07 04:10:30;;;;;;;;;8.00;5.80;;;;;2.57;54.48;100035.97;5069650;28;8961;-76
2022/01/07 04:12:59;;;;;;;;;6.00;6.00;;;;;2.77;54.53;100040.22;5069840;28;8845;-80
2022/01/07 04:15:28;;;;;;;;;15.50;12.00;;;;;2.98;54.74;100037.59;5070085;28;8873;-80
2022/01/07 04:17:57;;;;;;;;;17.25;16.00;;;;;3.13;53.33;100030.41;5037517;28;8860;-77
2022/01/07 04:20:30;;;;;;;;;9.40;7.60;;;;;3.05;51.95;100033.56;5049420;28;8847;-78
2022/01/07 04:23:01;;;;;;;;;11.00;8.00;;;;;2.47;53.34;100045.03;5034889;28;8861;-78
2022/01/07 04:25:30;;;;;;;;;1.00;1.00;;;;;1.75;55.11;100046.38;5073055;28;8844;-78
2022/01/07 04:28:01;;;;;;;;;8.40;7.20;;;;;1.53;56.18;100043.69;5073428;28;8843;-77
2022/01/07 04:30:33;;;;;;;;;5.80;5.80;;;;;1.49;56.99;100042.72;5072899;28;8878;-77
2022/01/07 04:33:02;;;;;;;;;10.00;9.60;;;;;1.70;56.41;100044.44;5090000;28;9019;-77
2022/01/07 04:35:33;;;;;;;;;9.20;6.00;;;;;1.98;55.29;100038.75;5039807;28;8819;-77
2022/01/07 04:38:04;;;;;;;;;7.00;7.00;;;;;1.95;54.90;100042.09;5073403;28;8852;-78
2022/01/07 04:40:33;;;;;;;;;8.60;8.60;;;;;2.05;55.50;100039.91;5089679;28;8875;-76
2022/01/07 04:43:03;;;;;;;;;11.40;7.40;;;;;1.69;56.46;100043.56;5072977;28;8958;-76
2022/01/07 04:45:33;;;;;;;;;9.60;8.00;;;;;1.37;57.32;100044.72;5106914;28;8844;-77
2022/01/07 04:48:02;;;;;;;;;8.60;8.60;;;;;1.11;57.94;100053.81;5066219;28;8977;-77
2022/01/07 04:50:31;;;;;;;;;6.80;6.00;;;;;1.35;57.95;100054.06;5050863;28;9709;-79
2022/01/07 04:53:00;;;;;;;;;6.80;6.80;;;;;1.78;57.45;100061.09;5072672;28;8822;-80
2022/01/07 04:55:36;;;;;;;;;5.00;3.80;;;;;1.61;56.23;100065.50;5106991;28;8963;-80
2022/01/07 04:58:08;;;;;;;;;7.20;7.20;;;;;1.09;57.28;100071.72;5072851;28;8837;-79
2022/01/07 05:00:38;;;;;;;;;6.80;5.60;;;;;0.92;58.43;100080.34;5089714;28;8907;-77
2022/01/07 05:03:07;;;;;;;;;9.20;7.00;;;;;0.93;58.18;100064.16;5106210;28;8869;-79
2022/01/07 05:05:36;;;;;;;;;7.80;7.80;;;;;0.79;58.44;100068.63;5089521;28;8841;-77
2022/01/07 05:08:05;;;;;;;;;3.80;3.80;;;;;0.71;58.75;100068.25;5072774;28;8856;-77
2022/01/07 05:10:37;;;;;;;;;6.20;6.20;;;;;0.74;59.17;100067.56;5107117;28;8852;-76
2022/01/07 05:13:05;;;;;;;;;6.80;6.80;;;;;0.91;58.33;100063.22;5076236;28;8829;-77
2022/01/07 05:15:35;;;;;;;;;0.00;0.00;;;;;0.96;58.61;100067.75;5076658;28;8884;-77
2022/01/07 05:18:04;;;;;;;;;6.20;6.20;;;;;0.57;59.00;100066.75;5001124;28;8921;-77
2022/01/07 05:20:33;;;;;;;;;8.25;7.25;;;;;0.83;58.97;100060.25;5056528;28;8850;-77
2022/01/07 05:23:01;;;;;;;;;7.80;7.80;;;;;1.01;58.18;100060.25;5072618;28;8841;-77
2022/01/07 05:25:34;;;;;;;;;15.00;9.20;;;;;0.85;58.41;100065.47;5052514;28;8830;-77
2022/01/07 05:28:05;;;;;;;;;7.00;7.00;;;;;0.77;58.60;100063.41;5069418;28;8865;-80
2022/01/07 05:30:35;;;;;;;;;6.20;4.00;;;;;0.98;58.21;100052.38;5048762;28;8871;-77
2022/01/07 05:33:03;;;;;;;;;8.80;4.80;;;;;1.38;57.96;100059.34;4983702;28;8839;-77
2022/01/07 05:35:32;;;;;;;;;3.00;1.00;;;;;1.39;56.84;100055.06;5049171;28;8851;-77
2022/01/07 05:38:01;;;;;;;;;6.40;6.40;;;;;1.51;56.66;100063.31;5016049;28;8827;-77
2022/01/07 05:40:30;;;;;;;;;5.60;1.00;;;;;1.44;56.14;100072.47;4983537;28;8832;-77
2022/01/07 05:42:58;;;;;;;;;2.20;1.80;;;;;1.36;56.49;100066.97;5048989;28;10126;-76
2022/01/07 05:45:28;;;;;;;;;8.60;6.60;;;;;1.08;57.58;100066.56;5032462;28;8824;-77
2022/01/07 05:47:57;;;;;;;;;6.20;6.20;;;;;0.77;58.06;100080.50;5032188;28;8862;-77
2022/01/07 05:50:25;;;;;;;;;6.80;6.80;;;;;0.76;58.55;100084.78;5071108;28;8879;-77
2022/01/07 05:52:54;;;;;;;;;7.80;7.80;;;;;0.60;58.88;100087.41;5072414;28;8827;-77
2022/01/07 05:55:23;;;;;;;;;7.40;5.60;;;;;0.50;59.19;100087.78;5072046;28;8843;-77
2022/01/07 05:57:51;;;;;;;;;7.00;6.00;;;;;0.46;59.81;100098.72;5048341;28;8840;-77
2022/01/07 06:00:20;;;;;;;;;8.60;5.60;;;;;0.35;59.68;100096.47;5032236;28;8852;-80
2022/01/07 06:02:50;;;;;;;;;9.20;8.20;;;;;0.31;59.65;100088.56;5048575;28;8858;-80
2022/01/07 06:05:19;;;;;;;;;10.40;7.00;;;;;0.19;60.36;100089.72;5032007;28;8869;-79
2022/01/07 06:07:48;;;;;;;;;7.80;6.20;;;;;0.38;60.32;100093.19;5061024;28;8829;-76
2022/01/07 06:10:16;;;;;;;;;9.60;7.40;;;;;0.49;59.90;100080.88;5055029;28;8973;-76
2022/01/07 06:12:45;;;;;;;;;9.00;9.00;;;;;0.59;59.19;100080.53;5072178;28;8838;-78
2022/01/07 06:15:14;;;;;;;;;9.00;6.75;;;;;0.89;58.80;100081.09;5071898;28;8865;-77
2022/01/07 06:17:43;;;;;;;;;7.50;6.75;;;;;1.06;57.48;100079.31;5071714;28;8866;-78
2022/01/07 06:20:13;;;;;;;;;9.00;7.00;;;;;1.33;57.58;100082.25;5088499;28;8864;-77
2022/01/07 06:22:42;;;;;;;;;7.00;7.00;;;;;1.62;56.90;100085.22;5044875;28;8866;-77
2022/01/07 06:25:12;;;;;;;;;8.50;6.50;;;;;1.65;55.60;100087.06;5028222;28;8837;-77
2022/01/07 06:27:41;;;;;;;;;9.20;6.80;;;;;1.06;57.11;100101.53;5008259;28;8851;-78
2022/01/07 06:30:11;;;;;;;;;7.00;7.00;;;;;0.93;57.04;100097.53;4994596;28;8832;-78
2022/01/07 06:32:40;;;;;;;;;10.00;9.00;;;;;0.58;58.29;100100.16;5028223;28;8879;-77
2022/01/07 06:35:14;;;;;;;;;11.50;9.50;;;;;0.68;58.62;100083.53;5027886;28;9037;-78
2022/01/07 06:37:43;;;;;;;;;9.40;7.80;;;;;0.61;58.42;100088.31;4988531;28;9787;-80
2022/01/07 06:40:11;;;;;;;;;10.00;7.00;;;;;0.49;59.51;100093.69;4972558;28;8868;-78
2022/01/07 06:42:41;;;;;;;;;8.00;6.50;;;;;0.65;59.39;100087.63;4972885;28;8840;-78
2022/01/07 06:45:10;;;;;;;;;7.80;5.60;;;;;0.53;58.54;100091.38;4988596;28;8861;-76
2022/01/07 06:47:39;;;;;;;;;4.80;4.80;;;;;0.59;59.09;100085.66;4972658;28;9614;-79
2022/01/07 06:50:09;;;;;;;;;9.00;9.00;;;;;0.76;58.55;100084.78;4972493;28;8868;-80
2022/01/07 06:52:39;;;;;;;;;6.20;6.20;;;;;1.10;57.45;100085.47;4972383;28;8868;-78
2022/01/07 06:55:09;;;;;;;;;8.60;8.60;;;;;1.35;56.47;100087.47;5047759;28;8870;-79
2022/01/07 06:57:38;;;;;;;;;10.80;8.20;;;;;0.80;56.61;100090.06;4982754;28;8854;-77
2022/01/07 07:00:08;;;;;;;;;12.75;10.50;;;;;0.76;57.61;100089.03;5034200;28;8965;-78
2022/01/07 07:02:37;;;;;;;;;10.75;8.00;;;;;0.50;58.36;100091.22;5052324;28;8879;-79
2022/01/07 07:05:07;;;;;;;;;9.60;7.40;;;;;0.51;58.59;100097.22;5054368;28;8845;-77
2022/01/07 07:07:35;;;;;;;;;11.00;9.25;;;;;0.31;59.19;100093.69;5070525;28;9572;-78
2022/01/07 07:10:06;;;;;;;;;7.00;6.00;;;;;0.31;58.50;100088.56;5110911;27;9766;-77
2022/01/07 07:12:35;;;;;;;;;7.00;7.00;;;;;0.27;58.95;100090.09;5129326;27;8846;-77
2022/01/07 07:15:04;;;;;;;;;6.00;4.50;;;;;0.22;59.26;100098.38;5129695;27;8864;-76
2022/01/07 07:17:33;;;;;;;;;8.25;6.00;;;;;0.13;59.40;100094.56;5112525;27;8870;-78
2022/01/07 07:20:03;;;;;;;;;5.20;5.20;;;;;0.16;59.93;100093.81;5129575;27;8834;-79
2022/01/07 07:22:31;;;;;;;;;11.75;9.25;;;;;0.08;59.83;100101.13;5129427;27;8835;-77
2022/01/07 07:25:00;;;;;;;;;15.00;10.00;;;;;0.06;62.14;100099.28;5112296;27;8854;-76
2022/01/07 07:27:31;;;;;;;;;15.25;14.00;;;;;0.04;63.76;100095.75;5107170;28;8833;-78
2022/01/07 07:29:59;;;;;;;;;12.75;12.75;;;;;0.08;62.96;100100.25;5090699;28;8817;-76
2022/01/07 07:32:29;;;;;;;;;5.50;4.50;;;;;0.14;63.96;100095.44;5073883;28;8892;-76
2022/01/07 07:35:02;;;;;;;;;13.00;12.25;;;;;0.27;63.77;100091.78;5073438;28;8853;-77
2022/01/07 07:37:31;;;;;;;;;13.50;12.75;;;;;0.35;64.26;100098.16;5090293;28;9586;-78
2022/01/07 07:40:00;;;;;;;;;12.50;12.50;;;;;0.45;63.78;100084.09;5073783;28;9004;-76
2022/01/07 07:42:30;;;;;;;;;13.50;13.00;;;;;0.61;63.69;100091.75;5073447;28;9606;-78
2022/01/07 07:45:00;;;;;;;;;17.33;16.00;;;;;0.53;64.06;100093.03;5090306;28;8864;-77
2022/01/07 07:47:29;;;;;;;;;15.50;14.00;;;;;0.78;63.55;100095.13;5090318;28;8887;-80
2022/01/07 07:49:58;;;;;;;;;14.75;11.50;;;;;1.20;62.23;100085.06;5073614;28;8853;-76
2022/01/07 07:52:27;;;;;;;;;39.25;31.00;;;;;1.60;61.56;100091.13;5090102;28;8861;-78
2022/01/07 07:54:56;;;;;;;;;13.75;13.00;;;;;1.40;60.33;100080.84;5046482;28;9555;-81
2022/01/07 07:57:24;;;;;;;;;18.00;14.25;;;;;1.55;60.19;100086.66;4997425;28;8881;-80
2022/01/07 07:59:55;;;;;;;;;16.25;15.25;;;;;1.97;58.83;100083.31;5053360;28;8826;-82
2022/01/07 08:02:24;;;;;;;;;17.50;16.00;;;;;1.87;57.73;100073.44;5053014;28;8862;-81
2022/01/07 08:04:52;;;;;;;;;15.25;15.25;;;;;1.44;58.38;100074.16;5052984;28;8849;-77
2022/01/07 08:07:21;;;;;;;;;17.50;15.50;;;;;1.23;60.50;100077.53;5026545;28;8838;-80
2022/01/07 08:09:51;;;;;;;;;19.00;16.00;;;;;1.40;60.37;100079.94;4993667;28;8846;-79
2022/01/07 08:12:25;;;;;;;;;22.75;19.00;;;;;1.43;59.94;100078.41;5009892;28;8854;-80
2022/01/07 08:17:41;;;;;;;;;18.75;17.25;;;;;1.30;59.21;100087.22;5010264;28;8953;-77
2022/01/07 08:20:10;;;;;;;;;43.75;40.50;;;;;1.75;57.70;100077.22;5010055;28;8849;-80
2022/01/07 08:22:39;;;;;;;;;19.40;18.00;;;;;2.21;56.34;100086.06;5026504;28;8870;-77
2022/01/07 08:25:08;;;;;;;;;11.40;9.80;;;;;2.62;54.83;100092.00;5011455;28;9051;-80
2022/01/07 08:27:37;;;;;;;;;79.00;61.25;;;;;2.99;54.42;100077.13;5009705;28;8852;-78
2022/01/07 08:30:14;;;;;;;;;22.25;19.25;;;;;3.09;53.76;100079.22;5006345;28;8871;-79
2022/01/07 08:35:30;;;;;;;;;14.20;12.60;;;;;3.71;52.04;100080.66;5006693;28;8864;-78
2022/01/07 08:37:59;;;;;;;;;14.80;14.80;;;;;3.97;51.99;100080.69;5000809;28;8885;-78
2022/01/07 08:40:27;;;;;;;;;15.00;13.40;;;;;4.19;51.56;100086.59;5029309;28;8846;-76
2022/01/07 08:42:56;;;;;;;;;5.80;5.80;;;;;4.39;50.45;100082.97;5029534;28;8878;-76
2022/01/07 08:45:26;;;;;;;;;20.20;14.80;;;;;3.90;49.89;100084.75;5029812;28;8896;-77
2022/01/07 08:47:55;;;;;;;;;13.60;13.00;;;;;3.16;51.72;100085.47;5029840;28;8853;-76
2022/01/07 08:50:24;;;;;;;;;17.00;15.60;;;;;3.04;51.59;100083.31;5029862;28;8989;-79
2022/01/07 08:52:55;;;;;;;;;14.00;12.00;;;;;2.89;52.65;100081.00;5029597;28;8902;-77
2022/01/07 08:55:23;;;;;;;;;16.00;13.60;;;;;3.28;52.49;100073.94;5013241;28;8872;-77
2022/01/07 08:57:52;;;;;;;;;18.80;15.80;;;;;3.57;51.94;100073.25;5013197;28;8903;-82
2022/01/07 09:00:21;;;;;;;;;18.00;13.60;;;;;3.63;51.23;100069.19;5013092;28;8873;-77
2022/01/07 09:02:51;;;;;;;;;15.20;13.00;;;;;3.93;51.50;100078.81;4996283;28;8853;-78
2022/01/07 09:05:19;;;;;;;;;14.00;13.60;;;;;4.15;49.83;100084.72;4996606;28;8844;-79
2022/01/07 09:07:48;;;;;;;;;16.20;13.20;;;;;4.20;49.30;100070.28;5049759;28;8859;-80
2022/01/07 09:10:17;;;;;;;;;19.80;19.40;;;;;4.41;49.48;100072.69;5052600;28;8960;-77
2022/01/07 09:12:46;;;;;;;;;14.00;11.80;;;;;4.64;49.46;100065.69;5052566;28;8894;-79
2022/01/07 09:15:15;;;;;;;;;15.80;15.80;;;;;4.86;48.54;100057.78;5036185;28;8844;-78
2022/01/07 09:17:44;;;;;;;;;18.20;15.60;;;;;5.00;47.99;100058.19;5036146;28;8860;-80
2022/01/07 09:20:14;;;;;;;;;9.60;9.60;;;;;5.16;47.65;100051.78;5091200;28;8845;-79
2022/01/07 09:22:42;;;;;;;;;13.20;12.80;;;;;5.32;47.83;100042.75;5111156;28;8948;-79
2022/01/07 09:25:11;;;;;;;;;15.00;12.40;;;;;5.46;47.17;100044.03;5093946;28;9602;-80
2022/01/07 09:27:41;;;;;;;;;18.80;17.20;;;;;5.54;46.72;100046.81;5111257;28;8853;-78
2022/01/07 09:30:11;;;;;;;;;16.20;15.60;;;;;4.93;46.41;100050.19;5094095;28;8849;-77
2022/01/07 09:32:41;;;;;;;;;23.20;17.60;;;;;5.03;47.39;100045.34;5111253;28;8845;-76
2022/01/07 09:35:11;;;;;;;;;14.80;11.80;;;;;5.27;47.39;100044.31;5111164;28;8995;-77
2022/01/07 09:37:41;;;;;;;;;26.00;23.25;;;;;5.44;46.86;100032.75;5094021;28;8845;-79
2022/01/07 09:40:11;;;;;;;;;35.25;32.25;;;;;5.59;47.18;100027.09;5093842;28;8945;-78
2022/01/07 09:42:53;;;;;;;;;47.50;42.25;;;;;5.73;46.42;100014.56;5093711;28;9003;-77
2022/01/07 09:45:25;;;;;;;;;24.50;22.00;;;;;5.61;44.75;100015.13;5110674;28;9597;-78
2022/01/07 09:47:53;;;;;;;;;16.00;16.00;;;;;4.64;46.66;100020.06;5110405;28;8849;-76
2022/01/07 09:50:24;;;;;;;;;20.80;16.20;;;;;4.44;46.84;100015.97;5092143;28;9642;-78
2022/01/07 09:52:54;;;;;;;;;17.00;15.20;;;;;4.00;47.89;100018.84;5092579;28;8851;-77
2022/01/07 09:55:23;;;;;;;;;18.00;14.40;;;;;4.27;47.89;100018.91;5042546;28;8882;-75
2022/01/07 09:57:52;;;;;;;;;21.25;18.00;;;;;4.56;47.86;100007.75;5091630;28;9003;-78
2022/01/07 10:00:21;;;;;;;;;20.75;15.50;;;;;4.63;46.21;100018.31;5075072;28;8946;-77
2022/01/07 10:03:01;;;;;;;;;18.60;15.40;;;;;4.34;46.10;100009.63;5078731;27;8845;-77
2022/01/07 10:05:30;;;;;;;;;17.60;14.40;;;;;4.61;47.11;100001.91;5078359;27;8829;-76
2022/01/07 10:08:19;;;;;;;;;12.80;11.80;;;;;4.85;46.33;100000.88;5079162;27;8837;-77
2022/01/07 10:10:48;;;;;;;;;14.20;14.20;;;;;5.00;46.48;100003.91;5112637;27;8841;-79
2022/01/07 10:13:21;;;;;;;;;25.20;20.80;;;;;5.30;46.02;99997.00;5129728;27;8841;-78
2022/01/07 10:15:49;;;;;;;;;12.80;11.80;;;;;4.45;43.50;99997.06;5095394;27;8830;-77
2022/01/07 10:18:18;;;;;;;;;18.20;12.40;;;;;4.29;45.16;99995.69;5112545;27;8838;-77
2022/01/07 10:20:48;;;;;;;;;13.40;13.40;;;;;4.50;45.82;99992.94;5096156;27;8823;-78
2022/01/07 10:23:24;;;;;;;;;22.75;21.75;;;;;4.83;46.19;99980.16;5113729;27;8870;-77
2022/01/07 10:25:55;;;;;;;;;11.75;5.25;;;;;5.15;46.27;99984.50;5113742;27;8858;-78
2022/01/07 10:28:30;;;;;;;;;15.20;14.40;;;;;4.85;44.44;99983.66;5113342;27;9597;-77
2022/01/07 10:31:00;;;;;;;;;82.00;63.50;;;;;4.37;45.88;99985.66;5091681;28;8847;-78
2022/01/07 10:33:30;;;;;;;;;23.00;21.75;;;;;4.67;45.75;99977.97;5091416;28;8906;-78
2022/01/07 10:36:15;;;;;;;;;22.50;21.50;;;;;4.84;44.92;99976.75;5108244;28;8835;-80
2022/01/07 10:38:51;;;;;;;;;15.00;15.00;;;;;4.12;45.34;99987.44;5109010;28;8980;-77
2022/01/07 10:41:21;;;;;;;;;16.80;16.00;;;;;4.33;46.13;99979.50;5092555;28;9642;-76
2022/01/07 10:43:51;;;;;;;;;22.80;19.40;;;;;4.66;46.10;99971.03;5052524;28;8851;-76
2022/01/07 10:46:24;;;;;;;;;18.00;13.00;;;;;4.39;45.29;99965.91;5033644;28;8872;-77
2022/01/07 10:48:55;;;;;;;;;20.50;17.50;;;;;4.81;45.65;99962.88;5018803;28;8933;-78
2022/01/07 10:51:26;;;;;;;;;20.40;19.20;;;;;5.05;45.89;99955.81;5013943;28;8883;-76
2022/01/07 10:53:58;;;;;;;;;16.60;14.00;;;;;5.31;45.07;99958.22;5013799;28;8974;-76
2022/01/07 10:56:35;;;;;;;;;14.80;12.20;;;;;5.65;42.84;99959.13;4974264;28;8847;-76
2022/01/07 10:59:07;;;;;;;;;20.00;18.00;;;;;5.88;42.41;99954.56;4955802;28;8965;-76
2022/01/07 11:01:41;;;;;;;;;15.40;14.00;;;;;6.14;42.08;99946.56;4977807;28;8948;-80
2022/01/07 11:04:13;;;;;;;;;17.60;15.40;;;;;6.36;41.76;99940.19;5007963;28;9729;-77
2022/01/07 11:06:43;;;;;;;;;14.80;14.80;;;;;6.59;41.46;99945.88;5009089;28;8862;-79
2022/01/07 11:09:15;;;;;;;;;17.00;14.80;;;;;6.78;40.95;99939.38;4991281;28;8840;-79
2022/01/07 11:11:50;;;;;;;;;19.40;16.80;;;;;6.54;40.88;99940.59;4992619;28;8973;-78
2022/01/07 11:14:21;;;;;;;;;23.25;20.75;;;;;6.68;41.09;99934.84;5038066;28;8879;-78
2022/01/07 11:16:50;;;;;;;;;23.00;21.00;;;;;6.77;40.90;99928.13;5075913;28;8888;-79
2022/01/07 11:19:22;;;;;;;;;18.40;16.20;;;;;5.99;40.32;99936.72;5092250;28;8837;-79
2022/01/07 11:21:53;;;;;;;;;19.00;19.00;;;;;6.22;41.51;99934.69;5074916;28;8841;-79
2022/01/07 11:24:38;;;;;;;;;16.00;15.00;;;;;6.41;40.31;99925.63;5050461;28;8850;-77
2022/01/07 11:27:09;;;;;;;;;18.40;16.00;;;;;6.57;40.85;99919.06;5051078;28;8858;-78
2022/01/07 11:29:39;;;;;;;;;19.80;18.20;;;;;6.69;40.63;99918.44;5051133;28;8872;-78
2022/01/07 11:32:34;;;;;;;;;17.20;17.00;;;;;6.86;39.68;99918.78;5034074;28;10004;-77
2022/01/07 11:35:46;;;;;;;;;16.20;16.20;;;;;7.05;40.46;99910.56;5050116;28;8997;-77
2022/01/07 11:38:42;;;;;;;;;18.40;15.80;;;;;7.21;40.40;99906.53;5069543;28;8907;-79
2022/01/07 11:41:47;;;;;;;;;20.80;19.60;;;;;7.30;39.59;99903.25;5050940;28;8865;-78
2022/01/07 11:44:22;;;;;;;;;19.60;18.20;;;;;7.32;39.85;99902.41;5051704;28;8818;-80
2022/01/07 11:46:51;;;;;;;;;18.60;17.20;;;;;7.27;38.45;99896.25;5067997;28;8860;-78
2022/01/07 11:49:36;;;;;;;;;27.80;23.80;;;;;7.32;39.32;99894.63;5033820;28;8829;-77
2022/01/07 11:52:35;;;;;;;;;16.00;15.20;;;;;7.36;38.41;99896.44;5069733;28;8978;-80
2022/01/07 11:55:21;;;;;;;;;25.00;23.80;;;;;7.25;37.51;99892.75;5078534;28;8843;-77